Time;durP1;ratioP1;P1;durP2;ratioP2;P2;SDS_P1;SDS_P2;PMS_P1;PMS_P2;Temp;Humidity;BMP_temperature;BMP_pressure;BME280_temperature;BME280_humidity;BME280_pressure;Samples;Min_cycle;Max_cycle;Signal;HPM_P1;HPM_P2
2022/12/18 00:01:31;;;;;;;16.98;8.60;;;6.20;65.30;;;;;;6265248;28;20034;-78
2022/12/18 00:04:32;;;;;;;26.58;11.30;;;6.30;65.30;;;;;;6260545;28;20378;-78
2022/12/18 00:07:32;;;;;;;21.55;8.40;;;6.30;65.10;;;;;;6248790;28;20041;-78
2022/12/18 00:10:34;;;;;;;20.55;9.15;;;6.40;65.10;;;;;;6248308;28;20029;-78
2022/12/18 00:13:35;;;;;;;17.23;8.13;;;6.40;64.90;;;;;;6265752;28;20044;-77
2022/12/18 00:16:36;;;;;;;20.88;8.23;;;6.40;64.80;;;;;;6249633;28;20060;-78
2022/12/18 00:19:37;;;;;;;19.73;8.68;;;6.50;64.70;;;;;;6248742;28;20029;-78
2022/12/18 00:22:38;;;;;;;18.63;7.72;;;6.50;64.70;;;;;;6250051;28;20060;-79
2022/12/18 00:25:40;;;;;;;13.75;7.22;;;6.50;64.50;;;;;;6263991;28;20041;-78
2022/12/18 00:28:42;;;;;;;28.42;6.82;;;6.50;64.40;;;;;;6264644;28;20367;-78
2022/12/18 00:31:43;;;;;;;16.73;6.53;;;6.50;64.20;;;;;;6247092;28;20044;-78
2022/12/18 00:34:44;;;;;;;22.33;8.10;;;6.50;64.20;;;;;;6247193;28;20041;-79
2022/12/18 00:37:45;;;;;;;17.55;8.30;;;6.40;64.20;;;;;;6246426;28;20064;-77
2022/12/18 00:40:48;;;;;;;18.42;7.00;;;6.40;64.30;;;;;;6246093;28;20386;-77
2022/12/18 00:43:49;;;;;;;18.17;7.70;;;6.40;64.30;;;;;;6245691;28;20512;-78
2022/12/18 00:46:50;;;;;;;21.58;8.20;;;6.40;64.30;;;;;;6264644;28;20049;-78
2022/12/18 00:49:51;;;;;;;18.42;7.82;;;6.40;64.30;;;;;;6264827;28;20037;-78
2022/12/18 00:52:52;;;;;;;15.00;6.78;;;6.40;64.30;;;;;;6249298;28;20029;-78
2022/12/18 00:55:53;;;;;;;15.80;7.75;;;6.40;64.20;;;;;;6249041;28;20041;-78
2022/12/18 00:58:54;;;;;;;22.00;9.43;;;6.40;64.10;;;;;;6263491;28;20049;-78
2022/12/18 01:01:55;;;;;;;17.02;8.10;;;6.40;64.30;;;;;;6248243;28;20041;-78
2022/12/18 01:04:55;;;;;;;21.13;7.80;;;6.30;64.30;;;;;;6262948;28;20449;-78
2022/12/18 01:07:56;;;;;;;18.83;7.95;;;6.30;64.30;;;;;;6264423;28;20531;-78
2022/12/18 01:10:57;;;;;;;16.33;6.63;;;6.30;64.30;;;;;;6248715;28;20025;-78
2022/12/18 01:13:59;;;;;;;20.63;8.93;;;6.30;64.30;;;;;;6264367;28;20033;-78
2022/12/18 01:17:02;;;;;;;16.15;6.97;;;6.30;64.30;;;;;;6248065;28;20041;-79
2022/12/18 01:20:07;;;;;;;17.92;7.90;;;6.30;64.30;;;;;;6247999;28;20049;-77
2022/12/18 01:23:08;;;;;;;12.10;6.38;;;6.30;64.30;;;;;;6247362;28;20036;-77
2022/12/18 01:26:11;;;;;;;15.98;7.20;;;6.30;64.30;;;;;;6254295;28;20056;-77
2022/12/18 01:29:12;;;;;;;16.90;6.70;;;6.30;64.30;;;;;;6220671;28;20507;-77
2022/12/18 01:32:14;;;;;;;17.08;6.78;;;6.20;64.20;;;;;;6237827;28;20403;-78
2022/12/18 01:35:15;;;;;;;19.02;7.43;;;6.20;64.30;;;;;;6238251;28;20037;-78
2022/12/18 01:38:16;;;;;;;17.77;7.25;;;6.10;64.30;;;;;;6223645;28;20045;-77
2022/12/18 01:41:20;;;;;;;18.75;7.43;;;6.10;64.40;;;;;;6224532;28;20034;-76
2022/12/18 01:44:58;;;;;;;12.93;5.90;;;6.10;64.60;;;;;;6242139;28;20522;-77
2022/12/18 01:48:03;;;;;;;12.90;6.45;;;6.10;64.70;;;;;;6260317;28;20047;-78
2022/12/18 01:51:05;;;;;;;16.85;7.35;;;6.00;64.60;;;;;;6212826;28;20034;-77
2022/12/18 01:54:06;;;;;;;19.30;7.95;;;6.00;64.50;;;;;;6252309;28;20045;-77
2022/12/18 01:57:07;;;;;;;16.38;7.38;;;6.00;64.50;;;;;;6264993;28;20386;-77
2022/12/18 02:00:12;;;;;;;12.30;6.13;;;5.90;64.50;;;;;;6234960;28;20044;-77
2022/12/18 02:03:16;;;;;;;14.00;5.93;;;5.90;64.70;;;;;;6276551;28;20075;-78
2022/12/18 02:07:00;;;;;;;13.80;5.97;;;6.00;64.90;;;;;;6262987;28;20037;-78
2022/12/18 02:10:20;;;;;;;14.30;6.82;;;6.00;64.80;;;;;;6205490;28;20042;-78
2022/12/18 02:14:02;;;;;;;14.73;6.93;;;6.00;64.70;;;;;;6223289;28;20034;-78
2022/12/18 02:17:16;;;;;;;16.13;7.25;;;6.00;64.80;;;;;;6223143;28;20045;-79
2022/12/18 02:20:31;;;;;;;14.30;6.40;;;6.20;64.90;;;;;;6237476;28;20054;-78
2022/12/18 02:24:16;;;;;;;19.13;7.18;;;6.10;64.80;;;;;;6192692;28;20117;-76
2022/12/18 02:27:18;;;;;;;13.80;7.63;;;6.10;64.70;;;;;;6217907;28;20038;-76
2022/12/18 02:30:21;;;;;;;21.80;7.35;;;6.10;64.70;;;;;;6240743;28;20033;-77
2022/12/18 02:33:25;;;;;;;16.60;5.72;;;6.10;64.80;;;;;;6248135;28;20038;-77
2022/12/18 02:36:28;;;;;;;22.92;8.20;;;6.10;64.80;;;;;;6192400;28;20034;-77
2022/12/18 02:39:33;;;;;;;19.05;7.97;;;6.10;64.90;;;;;;6194352;28;20038;-77
2022/12/18 02:42:38;;;;;;;16.90;7.10;;;6.10;64.90;;;;;;6196605;28;20038;-76
2022/12/18 02:46:25;;;;;;;19.20;8.05;;;6.10;64.90;;;;;;6203592;28;20084;-77
2022/12/18 02:49:53;;;;;;;22.17;8.90;;;6.00;65.00;;;;;;6204615;28;20467;-77
2022/12/18 02:53:18;;;;;;;26.67;8.98;;;6.00;65.20;;;;;;6236779;28;20120;-78
2022/12/18 02:56:26;;;;;;;16.92;8.13;;;6.00;65.40;;;;;;6242165;28;20041;-78
2022/12/18 02:59:40;;;;;;;36.47;11.35;;;6.00;65.50;;;;;;6241527;28;20033;-78
2022/12/18 03:02:54;;;;;;;43.40;12.93;;;6.00;65.60;;;;;;6258796;28;20033;-77
2022/12/18 03:06:10;;;;;;;24.40;8.02;;;5.80;65.50;;;;;;6258884;28;20079;-77
2022/12/18 03:09:17;;;;;;;18.27;6.78;;;6.00;65.80;;;;;;6234006;28;20038;-78
2022/12/18 03:12:30;;;;;;;8.68;4.60;;;6.00;65.90;;;;;;6242892;28;20050;-77
2022/12/18 03:15:37;;;;;;;13.35;5.47;;;6.00;65.90;;;;;;6240952;28;20053;-78
2022/12/18 03:18:58;;;;;;;13.13;6.00;;;5.90;65.60;;;;;;6213684;28;20138;-78
2022/12/18 03:22:03;;;;;;;17.13;7.22;;;5.90;65.40;;;;;;6191313;28;20096;-78
2022/12/18 03:25:15;;;;;;;12.50;6.10;;;5.90;65.20;;;;;;6219565;28;20348;-78
2022/12/18 03:28:22;;;;;;;9.55;5.30;;;5.80;65.10;;;;;;6235379;28;20030;-78
2022/12/18 03:31:31;;;;;;;12.45;4.90;;;5.80;65.10;;;;;;6238602;28;20100;-78
2022/12/18 03:34:37;;;;;;;13.70;5.70;;;5.80;64.90;;;;;;6240584;28;20025;-78
2022/12/18 03:37:40;;;;;;;12.45;5.93;;;5.80;64.60;;;;;;6240726;28;20116;-78
2022/12/18 03:41:11;;;;;;;15.57;6.85;;;5.70;64.50;;;;;;6241237;28;20095;-78
2022/12/18 03:44:58;;;;;;;14.65;5.93;;;5.70;64.50;;;;;;6216778;28;20569;-77
2022/12/18 03:48:15;;;;;;;11.55;5.10;;;5.60;64.50;;;;;;6216354;28;20124;-77
2022/12/18 03:51:50;;;;;;;11.77;4.80;;;5.60;64.70;;;;;;6215811;28;20045;-79
2022/12/18 03:54:53;;;;;;;16.60;6.30;;;5.60;64.70;;;;;;6207483;28;20042;-79
2022/12/18 03:57:55;;;;;;;8.70;5.28;;;5.60;64.80;;;;;;6242863;28;20049;-77
2022/12/18 04:01:01;;;;;;;12.20;5.38;;;5.50;64.70;;;;;;6243050;28;20022;-76
2022/12/18 04:04:03;;;;;;;9.57;4.65;;;5.60;64.80;;;;;;6237051;28;20053;-78
2022/12/18 04:07:08;;;;;;;11.43;5.25;;;5.60;64.90;;;;;;6234914;28;20339;-79
2022/12/18 04:10:14;;;;;;;11.07;5.03;;;5.60;64.80;;;;;;6217475;28;20049;-78
2022/12/18 04:13:32;;;;;;;11.10;5.80;;;5.60;64.80;;;;;;6219505;28;20038;-77
2022/12/18 04:16:36;;;;;;;11.38;4.97;;;5.60;64.80;;;;;;6203135;28;20049;-77
2022/12/18 04:19:39;;;;;;;9.88;4.50;;;5.60;64.70;;;;;;6236413;28;20134;-77
2022/12/18 04:22:40;;;;;;;10.65;5.13;;;5.70;64.70;;;;;;6237170;28;20164;-79
2022/12/18 04:25:41;;;;;;;12.18;5.63;;;5.70;64.50;;;;;;6219058;28;20077;-78
2022/12/18 04:28:45;;;;;;;16.80;6.22;;;5.70;64.50;;;;;;6217739;28;20363;-77
2022/12/18 04:31:47;;;;;;;11.88;4.53;;;5.70;64.50;;;;;;6220815;28;20051;-79
2022/12/18 04:34:48;;;;;;;12.23;5.03;;;5.60;64.40;;;;;;6239319;28;20061;-77
2022/12/18 04:37:49;;;;;;;10.82;5.20;;;5.60;64.40;;;;;;6226276;28;20474;-78
2022/12/18 04:40:50;;;;;;;13.35;4.57;;;5.60;64.40;;;;;;6227486;28;20033;-78
2022/12/18 04:43:58;;;;;;;7.97;4.53;;;5.60;64.40;;;;;;6245658;28;20108;-78
2022/12/18 04:46:59;;;;;;;9.63;5.13;;;5.60;64.40;;;;;;6207327;28;20041;-78
2022/12/18 04:50:00;;;;;;;11.90;5.15;;;5.60;64.20;;;;;;6223361;28;20037;-79
2022/12/18 04:53:01;;;;;;;10.73;4.90;;;5.50;64.20;;;;;;6240300;28;20037;-79
2022/12/18 04:56:03;;;;;;;20.50;4.95;;;5.50;64.30;;;;;;6223374;28;20038;-78
2022/12/18 04:59:04;;;;;;;11.27;5.35;;;5.40;64.30;;;;;;6239754;28;20041;-77
2022/12/18 05:02:05;;;;;;;12.85;5.95;;;5.40;64.50;;;;;;6237929;28;20052;-79
2022/12/18 05:05:07;;;;;;;9.02;4.53;;;5.40;64.50;;;;;;6240862;28;20125;-80
2022/12/18 05:08:08;;;;;;;13.30;5.25;;;5.30;64.50;;;;;;6224728;28;20471;-78
2022/12/18 05:11:12;;;;;;;11.88;4.32;;;5.30;64.60;;;;;;6239392;28;20056;-78
2022/12/18 05:14:12;;;;;;;11.07;4.88;;;5.30;64.70;;;;;;6230568;28;20037;-78
2022/12/18 05:17:13;;;;;;;8.52;5.10;;;5.30;64.70;;;;;;6246273;28;20065;-79
2022/12/18 05:20:14;;;;;;;10.40;4.13;;;5.30;64.70;;;;;;6205213;28;20029;-77
2022/12/18 05:23:15;;;;;;;10.93;5.13;;;5.30;64.70;;;;;;6238891;28;20471;-77
2022/12/18 05:26:18;;;;;;;13.52;5.63;;;5.20;64.80;;;;;;6243400;28;20037;-79
2022/12/18 05:29:19;;;;;;;17.45;5.97;;;5.20;64.80;;;;;;6264218;28;20060;-77
2022/12/18 05:32:20;;;;;;;34.25;5.60;;;5.20;65.00;;;;;;6265194;28;20053;-78
2022/12/18 05:35:20;;;;;;;12.27;5.43;;;5.20;65.00;;;;;;6248209;28;20040;-78
2022/12/18 05:38:23;;;;;;;13.85;5.85;;;5.10;65.00;;;;;;6248100;28;20099;-78
2022/12/18 05:41:24;;;;;;;13.80;4.95;;;5.10;65.20;;;;;;6246676;28;20467;-79
2022/12/18 05:44:25;;;;;;;13.32;5.00;;;5.10;65.20;;;;;;6231558;28;20040;-78
2022/12/18 05:47:28;;;;;;;9.98;5.07;;;5.10;65.40;;;;;;6234221;28;20045;-78
2022/12/18 05:50:29;;;;;;;8.85;4.18;;;5.10;65.40;;;;;;6250845;28;20034;-79
2022/12/18 05:53:37;;;;;;;12.90;5.00;;;5.10;65.20;;;;;;6267033;28;20037;-79
2022/12/18 05:56:38;;;;;;;13.88;5.45;;;5.10;65.30;;;;;;6244855;28;20048;-78
2022/12/18 05:59:39;;;;;;;20.30;6.20;;;5.10;65.40;;;;;;6228269;28;20038;-78
2022/12/18 06:02:40;;;;;;;12.38;6.22;;;5.00;65.50;;;;;;6249319;28;20450;-78
2022/12/18 06:05:43;;;;;;;13.50;5.65;;;5.00;65.60;;;;;;6249933;28;20041;-79
2022/12/18 06:08:44;;;;;;;13.32;5.45;;;4.90;65.80;;;;;;6230503;28;20052;-79
2022/12/18 06:11:45;;;;;;;15.13;6.28;;;4.90;65.90;;;;;;6248419;28;20034;-78
2022/12/18 06:14:45;;;;;;;15.32;7.72;;;4.90;66.10;;;;;;6229991;28;20518;-77
2022/12/18 06:17:46;;;;;;;14.80;6.53;;;4.90;66.20;;;;;;6262483;28;20124;-79
2022/12/18 06:20:58;;;;;;;13.27;6.13;;;4.80;66.20;;;;;;6245666;28;20039;-79
2022/12/18 06:24:00;;;;;;;8.80;5.13;;;4.80;66.70;;;;;;6263200;28;20037;-78
2022/12/18 06:27:00;;;;;;;13.25;6.05;;;4.70;66.40;;;;;;6265919;28;20044;-78
2022/12/18 06:30:01;;;;;;;12.35;5.90;;;4.70;66.70;;;;;;6250151;28;20037;-78
2022/12/18 06:33:03;;;;;;;12.38;6.32;;;4.70;67.00;;;;;;6247071;28;20129;-78
2022/12/18 06:36:10;;;;;;;11.52;5.90;;;4.70;67.10;;;;;;6246963;28;20037;-79
2022/12/18 06:39:11;;;;;;;12.48;5.95;;;4.60;67.20;;;;;;6246487;28;20116;-77
2022/12/18 06:42:12;;;;;;;13.55;6.22;;;4.60;67.30;;;;;;6247217;28;20047;-76
2022/12/18 06:45:16;;;;;;;14.93;6.78;;;4.60;67.40;;;;;;6247496;28;20041;-77
2022/12/18 06:48:16;;;;;;;15.20;6.03;;;4.70;67.70;;;;;;6231678;28;20116;-76
2022/12/18 06:51:22;;;;;;;10.15;5.05;;;4.70;67.70;;;;;;6247085;28;20041;-78
2022/12/18 06:54:23;;;;;;;13.90;6.20;;;4.70;67.70;;;;;;6263680;28;20143;-79
2022/12/18 06:57:24;;;;;;;12.32;6.47;;;4.70;67.70;;;;;;6251382;28;20034;-78
2022/12/18 07:00:25;;;;;;;18.80;7.43;;;4.80;67.90;;;;;;6228617;28;20030;-78
2022/12/18 07:03:26;;;;;;;15.57;7.65;;;4.80;67.80;;;;;;6258064;28;20348;-78
2022/12/18 07:06:27;;;;;;;13.85;6.57;;;4.80;67.80;;;;;;6263989;28;20069;-78
2022/12/18 07:09:28;;;;;;;17.77;7.57;;;4.90;67.80;;;;;;6244620;28;20126;-78
2022/12/18 07:12:29;;;;;;;18.23;8.27;;;4.90;67.90;;;;;;6201653;28;20034;-78
2022/12/18 07:15:30;;;;;;;16.25;6.50;;;4.90;68.10;;;;;;6219402;28;20080;-77
2022/12/18 07:18:31;;;;;;;17.65;6.20;;;4.80;68.00;;;;;;6226036;28;20041;-78
2022/12/18 07:21:32;;;;;;;14.38;6.03;;;4.80;67.90;;;;;;6223753;28;20092;-78
2022/12/18 07:24:34;;;;;;;14.90;6.75;;;4.80;68.00;;;;;;6246821;28;20051;-78
2022/12/18 07:27:35;;;;;;;13.05;6.18;;;4.80;68.10;;;;;;6246286;28;20486;-78
2022/12/18 07:30:38;;;;;;;18.70;6.63;;;4.70;68.10;;;;;;6245752;28;20037;-78
2022/12/18 07:33:39;;;;;;;17.52;6.93;;;4.70;68.20;;;;;;6222209;28;20122;-78
2022/12/18 07:36:40;;;;;;;11.38;4.97;;;4.70;68.20;;;;;;6205241;28;20045;-78
2022/12/18 07:39:41;;;;;;;11.85;5.13;;;4.70;68.40;;;;;;6221790;28;20030;-78
2022/12/18 07:42:41;;;;;;;15.38;6.38;;;4.70;68.40;;;;;;6229078;28;20034;-78
2022/12/18 07:45:43;;;;;;;15.02;6.60;;;4.70;68.70;;;;;;6204998;28;20045;-78
2022/12/18 07:48:45;;;;;;;15.00;7.43;;;4.70;68.40;;;;;;6247182;28;20053;-78
2022/12/18 07:51:48;;;;;;;10.10;5.35;;;4.80;68.40;;;;;;6256757;28;20041;-78
2022/12/18 07:54:49;;;;;;;9.02;5.57;;;4.80;68.40;;;;;;6222851;28;20422;-79
2022/12/18 07:57:50;;;;;;;12.25;6.95;;;4.70;68.40;;;;;;6245775;28;20048;-79
2022/12/18 08:00:52;;;;;;;16.35;7.18;;;4.80;68.50;;;;;;6261711;28;20053;-79
2022/12/18 08:03:53;;;;;;;13.25;6.47;;;4.80;68.60;;;;;;6228668;28;20653;-77
2022/12/18 08:06:54;;;;;;;11.75;6.47;;;4.90;68.50;;;;;;6240832;28;20057;-77
2022/12/18 08:09:54;;;;;;;14.48;5.95;;;4.90;68.40;;;;;;6249182;28;20061;-78
2022/12/18 08:12:55;;;;;;;22.40;5.55;;;4.90;68.20;;;;;;6265686;28;20037;-77
2022/12/18 08:16:07;;;;;;;16.15;6.72;;;5.00;68.00;;;;;;6269171;28;20060;-78
2022/12/18 08:19:08;;;;;;;11.82;5.45;;;5.00;67.90;;;;;;6229221;28;20061;-78
2022/12/18 08:22:08;;;;;;;16.48;5.80;;;5.10;67.70;;;;;;6249513;28;20033;-78
2022/12/18 08:25:10;;;;;;;11.10;5.10;;;5.10;67.50;;;;;;6250337;28;20046;-79
2022/12/18 08:28:13;;;;;;;9.77;5.35;;;5.10;67.20;;;;;;6250252;28;20410;-77
2022/12/18 08:31:14;;;;;;;12.10;5.88;;;5.10;67.10;;;;;;6247372;28;20033;-78
2022/12/18 08:34:14;;;;;;;16.48;6.05;;;5.20;66.90;;;;;;6226850;28;20049;-77
2022/12/18 08:37:15;;;;;;;19.48;7.75;;;5.20;66.90;;;;;;6247408;28;20478;-77
2022/12/18 08:40:16;;;;;;;12.73;5.88;;;5.30;67.00;;;;;;6245147;28;20102;-75
2022/12/18 08:46:41;;;;;;;10.80;4.88;;;5.50;67.00;;;;;;6239917;28;20386;-77
2022/12/18 08:49:42;;;;;;;18.52;6.10;;;5.70;66.70;;;;;;6243431;28;20462;-78
2022/12/18 08:52:43;;;;;;;8.60;5.53;;;5.80;67.00;;;;;;6260981;28;20103;-78
2022/12/18 08:55:44;;;;;;;16.30;6.30;;;5.80;65.80;;;;;;6244880;28;20419;-78
2022/12/18 08:58:45;;;;;;;13.77;6.75;;;5.80;65.70;;;;;;6244374;28;20548;-78
2022/12/18 09:01:46;;;;;;;14.73;6.43;;;5.90;65.90;;;;;;6242566;28;20076;-78
2022/12/18 09:04:48;;;;;;;19.33;7.32;;;5.90;65.90;;;;;;6219129;28;20049;-79
2022/12/18 09:07:50;;;;;;;16.10;7.05;;;5.90;66.00;;;;;;6243510;28;20371;-79
2022/12/18 09:10:52;;;;;;;19.73;9.20;;;6.00;65.90;;;;;;6246000;28;20048;-79
2022/12/18 09:13:53;;;;;;;16.83;8.38;;;6.00;65.90;;;;;;6244919;28;20029;-78
2022/12/18 09:16:55;;;;;;;21.90;9.20;;;6.00;66.00;;;;;;6259991;28;20120;-79
2022/12/18 09:19:55;;;;;;;27.65;9.85;;;5.90;66.00;;;;;;6245169;28;20447;-78
2022/12/18 09:22:58;;;;;;;22.27;9.40;;;6.00;66.10;;;;;;6244821;28;20462;-77
2022/12/18 09:25:59;;;;;;;21.40;10.48;;;6.00;66.20;;;;;;6245198;28;20045;-77
2022/12/18 09:29:00;;;;;;;28.58;11.20;;;6.00;66.30;;;;;;6244610;28;20113;-78
2022/12/18 09:32:01;;;;;;;27.95;13.35;;;6.10;66.30;;;;;;6245990;28;20179;-77
2022/12/18 09:35:02;;;;;;;23.05;9.88;;;6.10;66.10;;;;;;6246317;28;20084;-78
2022/12/18 09:38:03;;;;;;;20.88;9.18;;;6.10;66.00;;;;;;6245953;28;20312;-79
2022/12/18 09:41:13;;;;;;;25.45;10.75;;;6.20;66.00;;;;;;6226875;28;20383;-78
2022/12/18 09:44:41;;;;;;;28.77;10.57;;;6.20;65.90;;;;;;6220107;28;20395;-78
2022/12/18 09:47:45;;;;;;;29.13;9.93;;;6.20;66.00;;;;;;6247784;28;20067;-79
2022/12/18 09:50:47;;;;;;;23.65;10.65;;;6.30;66.00;;;;;;6242012;28;20064;-79
2022/12/18 09:54:03;;;;;;;25.90;9.80;;;6.40;66.10;;;;;;6233522;28;20057;-78
2022/12/18 09:57:04;;;;;;;16.63;7.90;;;6.50;66.60;;;;;;6258121;28;20095;-78
2022/12/18 10:00:20;;;;;;;24.65;9.45;;;6.70;66.40;;;;;;6243644;28;20030;-77
2022/12/18 10:03:21;;;;;;;25.10;8.60;;;7.10;65.40;;;;;;6250376;28;20074;-78
2022/12/18 10:06:29;;;;;;;23.25;8.95;;;7.40;64.80;;;;;;6256864;28;20041;-79
2022/12/18 10:09:49;;;;;;;16.37;8.40;;;7.70;64.00;;;;;;6243996;28;20501;-79
2022/12/18 10:13:24;;;;;;;22.35;8.93;;;7.80;62.70;;;;;;6241149;28;20034;-79
2022/12/18 10:16:56;;;;;;;21.48;8.75;;;7.90;62.70;;;;;;6232777;28;20042;-79
2022/12/18 10:20:13;;;;;;;19.90;9.00;;;8.10;62.10;;;;;;6173452;28;20072;-78
2022/12/18 10:23:19;;;;;;;19.38;9.35;;;8.20;61.60;;;;;;6174026;28;20050;-77
2022/12/18 10:26:21;;;;;;;19.80;8.73;;;8.40;61.50;;;;;;6174866;28;20053;-78
2022/12/18 10:29:22;;;;;;;18.70;7.65;;;8.50;61.20;;;;;;6176237;28;20372;-77
2022/12/18 10:32:29;;;;;;;19.95;7.18;;;8.70;60.70;;;;;;6175091;28;20093;-78
2022/12/18 10:35:30;;;;;;;33.42;11.65;;;8.90;59.90;;;;;;6173564;28;20038;-78
2022/12/18 10:38:31;;;;;;;19.45;8.07;;;9.00;59.60;;;;;;6189960;28;20061;-78
2022/12/18 10:41:32;;;;;;;17.00;8.07;;;9.20;59.30;;;;;;6189869;28;20022;-77
2022/12/18 10:44:33;;;;;;;27.25;10.35;;;9.50;58.60;;;;;;6190049;28;20593;-78
2022/12/18 10:47:34;;;;;;;27.23;9.20;;;9.80;57.90;;;;;;6174259;28;20325;-78
2022/12/18 10:50:37;;;;;;;22.63;9.23;;;10.00;57.10;;;;;;6165677;28;20567;-79
2022/12/18 10:53:42;;;;;;;29.98;9.35;;;10.30;56.80;;;;;;6151413;28;20039;-78
2022/12/18 10:56:44;;;;;;;16.48;7.78;;;10.50;55.70;;;;;;6224155;28;20041;-78
2022/12/18 10:59:53;;;;;;;20.20;9.90;;;10.80;55.10;;;;;;6240512;28;20467;-77
2022/12/18 11:02:55;;;;;;;24.52;10.50;;;10.80;54.60;;;;;;6247544;28;20045;-79
2022/12/18 11:06:06;;;;;;;25.88;10.88;;;11.00;54.80;;;;;;6238305;28;20057;-78
2022/12/18 11:09:21;;;;;;;25.85;9.93;;;11.40;55.00;;;;;;6240238;28;20466;-77
2022/12/18 11:12:22;;;;;;;19.77;8.43;;;11.80;53.50;;;;;;6217567;28;20092;-77
2022/12/18 11:15:29;;;;;;;18.52;8.40;;;12.10;52.50;;;;;;6232987;28;20044;-78
2022/12/18 11:18:33;;;;;;;12.88;6.63;;;12.40;51.80;;;;;;6192617;28;20352;-78
2022/12/18 11:21:42;;;;;;;17.73;7.95;;;13.00;50.90;;;;;;6216383;28;20137;-78
2022/12/18 11:24:43;;;;;;;18.42;7.90;;;13.40;49.40;;;;;;6239680;28;20120;-76
2022/12/18 11:28:31;;;;;;;12.98;6.22;;;13.80;48.50;;;;;;6258127;28;20427;-78
2022/12/18 11:31:35;;;;;;;13.02;5.95;;;14.30;47.20;;;;;;6189836;28;20340;-79
2022/12/18 11:34:37;;;;;;;12.75;6.20;;;14.50;45.50;;;;;;6183044;28;20157;-79
2022/12/18 11:37:42;;;;;;;16.88;6.75;;;14.50;45.40;;;;;;6200799;28;20041;-78
2022/12/18 11:40:46;;;;;;;18.48;7.60;;;14.20;46.50;;;;;;6200230;28;20458;-78
2022/12/18 11:43:53;;;;;;;23.55;9.20;;;13.80;47.00;;;;;;6198861;28;20124;-78
2022/12/18 11:47:03;;;;;;;16.92;7.75;;;13.30;47.20;;;;;;6215819;28;20037;-79
2022/12/18 11:50:22;;;;;;;18.85;7.55;;;12.90;48.20;;;;;;6214030;28;20114;-79
2022/12/18 11:53:25;;;;;;;19.63;7.30;;;12.50;48.40;;;;;;6197792;28;20038;-78
2022/12/18 11:56:26;;;;;;;16.35;5.85;;;12.10;48.70;;;;;;6197887;28;20045;-79
2022/12/18 11:59:42;;;;;;;18.15;7.13;;;11.70;49.40;;;;;;6197410;28;20041;-77
2022/12/18 12:03:12;;;;;;;17.48;5.65;;;11.40;50.00;;;;;;6210209;28;20386;-79
2022/12/18 12:06:48;;;;;;;9.93;4.68;;;11.20;50.70;;;;;;6217464;28;20120;-78
2022/12/18 12:10:23;;;;;;;19.67;8.02;;;11.00;51.20;;;;;;6213482;28;20050;-78
2022/12/18 12:13:30;;;;;;;23.05;9.50;;;10.80;51.50;;;;;;6149901;28;20129;-78
2022/12/18 12:17:03;;;;;;;26.77;10.05;;;10.60;51.70;;;;;;6165348;28;20047;-78
2022/12/18 12:20:38;;;;;;;41.22;14.98;;;10.40;52.00;;;;;;6163739;28;20062;-77
2022/12/18 12:23:48;;;;;;;18.65;9.18;;;10.20;52.50;;;;;;6163493;28;20042;-79
2022/12/18 12:27:03;;;;;;;14.70;5.85;;;10.10;53.00;;;;;;6153368;28;20084;-77
2022/12/18 12:30:19;;;;;;;23.13;9.13;;;10.00;54.00;;;;;;6163848;28;20035;-78
2022/12/18 12:33:48;;;;;;;19.88;8.85;;;10.00;53.60;;;;;;6163842;28;20093;-78
2022/12/18 12:36:51;;;;;;;18.63;6.88;;;10.00;53.80;;;;;;6161620;28;20114;-78
2022/12/18 12:39:54;;;;;;;14.57;7.07;;;9.90;54.00;;;;;;6166741;28;20042;-78
2022/12/18 12:43:15;;;;;;;23.73;8.93;;;9.90;54.10;;;;;;6166533;28;20046;-78
2022/12/18 12:46:20;;;;;;;23.08;9.38;;;9.80;54.50;;;;;;6162308;28;20412;-78
2022/12/18 12:49:28;;;;;;;36.47;13.05;;;9.80;54.70;;;;;;6202606;28;20053;-77
2022/12/18 12:52:40;;;;;;;19.98;9.70;;;9.80;54.90;;;;;;6241666;28;20112;-78
2022/12/18 12:55:42;;;;;;;18.77;7.88;;;9.70;55.10;;;;;;6246475;28;20029;-79
2022/12/18 12:59:01;;;;;;;16.77;6.93;;;9.70;55.40;;;;;;6228811;28;20030;-78
2022/12/18 13:02:20;;;;;;;;;;;9.70;55.40;;;;;;6245355;28;20111;-79
2022/12/18 13:05:34;;;;;;;14.23;6.78;;;9.70;55.30;;;;;;6220156;28;19940;-78
2022/12/18 13:08:54;;;;;;;18.35;7.50;;;9.70;55.30;;;;;;6237332;28;20022;-79
2022/12/18 13:15:43;;;;;;;13.27;6.03;;;9.70;55.40;;;;;;6226929;28;20044;-78
2022/12/18 13:18:53;;;;;;;16.65;6.10;;;9.70;55.40;;;;;;6243532;28;20060;-78
2022/12/18 13:21:56;;;;;;;16.67;6.63;;;9.70;55.50;;;;;;6244562;28;20071;-79
2022/12/18 13:24:57;;;;;;;27.05;8.85;;;9.70;55.50;;;;;;6244043;28;20040;-78
2022/12/18 13:28:03;;;;;;;15.52;6.93;;;9.70;55.50;;;;;;6256210;28;20037;-77
2022/12/18 13:31:04;;;;;;;18.08;7.30;;;9.70;55.50;;;;;;6257485;28;20136;-79
2022/12/18 13:34:21;;;;;;;24.33;7.03;;;9.70;55.50;;;;;;6255313;28;20063;-78
2022/12/18 13:37:31;;;;;;;16.38;6.68;;;9.70;55.70;;;;;;6263150;28;20038;-79
2022/12/18 13:40:50;;;;;;;24.52;7.25;;;9.80;55.80;;;;;;6246791;28;20033;-79
2022/12/18 13:44:10;;;;;;;14.82;6.22;;;9.80;55.70;;;;;;6247154;28;20033;-78
2022/12/18 13:47:34;;;;;;;12.77;5.30;;;9.90;55.60;;;;;;6220074;28;20045;-79
2022/12/18 13:50:35;;;;;;;22.15;7.55;;;9.90;55.40;;;;;;6234395;28;20049;-78
2022/12/18 13:53:47;;;;;;;15.95;6.63;;;9.90;55.40;;;;;;6246342;28;20121;-79
2022/12/18 13:56:49;;;;;;;20.90;6.30;;;9.90;55.60;;;;;;6260737;28;20429;-79
2022/12/18 13:59:50;;;;;;;14.10;4.75;;;10.00;55.50;;;;;;6244764;28;20119;-79
2022/12/18 14:02:51;;;;;;;11.90;5.13;;;10.00;55.50;;;;;;6225284;28;20135;-78
2022/12/18 14:05:55;;;;;;;10.07;5.13;;;10.10;55.50;;;;;;6219871;28;20037;-79
2022/12/18 14:08:56;;;;;;;18.52;7.40;;;10.10;55.60;;;;;;6219513;28;20447;-78
2022/12/18 14:15:26;;;;;;;23.52;9.80;;;10.20;55.60;;;;;;6243804;28;20348;-79
2022/12/18 14:18:46;;;;;;;18.65;6.80;;;10.20;55.70;;;;;;6241904;28;20112;-78
2022/12/18 14:21:49;;;;;;;15.20;5.80;;;10.20;55.60;;;;;;6239560;28;20034;-79
2022/12/18 14:25:14;;;;;;;16.50;5.13;;;10.20;55.50;;;;;;6242880;28;20033;-79
2022/12/18 14:28:16;;;;;;;16.35;7.30;;;10.20;55.60;;;;;;6239160;28;20068;-78
2022/12/18 14:31:23;;;;;;;12.35;5.40;;;10.10;55.60;;;;;;6240803;28;20033;-78
2022/12/18 14:34:26;;;;;;;16.17;5.55;;;10.10;55.50;;;;;;6261528;28;20030;-78
2022/12/18 14:37:27;;;;;;;15.35;5.68;;;10.10;55.30;;;;;;6244077;28;20517;-76
2022/12/18 14:40:28;;;;;;;13.50;5.28;;;10.00;55.40;;;;;;6234276;28;20044;-78
2022/12/18 14:43:33;;;;;;;11.82;5.68;;;10.00;55.20;;;;;;6242593;28;20112;-78
2022/12/18 14:46:39;;;;;;;13.93;6.57;;;10.00;55.40;;;;;;6243608;28;20427;-78
2022/12/18 14:49:42;;;;;;;19.05;6.53;;;10.00;55.40;;;;;;6258848;28;20037;-78
2022/12/18 14:52:43;;;;;;;11.90;5.50;;;10.00;55.50;;;;;;6243252;28;20034;-78
2022/12/18 14:55:47;;;;;;;11.25;5.45;;;10.00;55.60;;;;;;6259277;28;20474;-77
2022/12/18 14:59:13;;;;;;;16.63;5.70;;;9.90;55.70;;;;;;6260342;28;20035;-78
2022/12/18 15:02:24;;;;;;;18.45;6.93;;;10.00;55.90;;;;;;6256865;28;20049;-78
2022/12/18 15:05:27;;;;;;;17.00;6.82;;;9.90;56.00;;;;;;6242430;28;20128;-79
2022/12/18 15:08:36;;;;;;;12.95;6.00;;;9.90;56.20;;;;;;6242099;28;20033;-78
2022/12/18 15:11:39;;;;;;;16.38;7.05;;;9.90;56.30;;;;;;6215478;28;20026;-78
2022/12/18 15:14:41;;;;;;;12.02;5.95;;;9.90;56.40;;;;;;6228775;28;20409;-78
2022/12/18 15:17:42;;;;;;;11.55;5.22;;;9.90;56.50;;;;;;6237866;28;20096;-77
2022/12/18 15:20:49;;;;;;;15.95;6.30;;;9.80;56.50;;;;;;6240541;28;20045;-79
2022/12/18 15:23:51;;;;;;;17.65;6.03;;;9.80;56.60;;;;;;6237299;28;20421;-78
2022/12/18 15:26:52;;;;;;;13.68;6.03;;;9.70;56.80;;;;;;6223357;28;20045;-77
2022/12/18 15:30:08;;;;;;;14.90;5.40;;;9.70;56.90;;;;;;6243060;28;20060;-77
2022/12/18 15:33:59;;;;;;;19.50;7.18;;;9.70;56.90;;;;;;6253232;28;20041;-79
2022/12/18 15:37:00;;;;;;;14.98;6.13;;;9.60;57.00;;;;;;6208292;28;20340;-78
2022/12/18 15:40:02;;;;;;;19.85;7.97;;;9.60;57.10;;;;;;6199883;28;20042;-78
2022/12/18 15:46:27;;;;;;;12.10;5.78;;;9.50;57.30;;;;;;6214726;28;20054;-78
2022/12/18 15:49:28;;;;;;;13.90;5.97;;;9.40;57.40;;;;;;6200459;28;20131;-77
2022/12/18 15:52:29;;;;;;;10.45;5.28;;;9.40;57.40;;;;;;6217017;28;20038;-78
2022/12/18 15:58:50;;;;;;;15.75;5.93;;;9.30;57.50;;;;;;6214024;28;20137;-78
2022/12/18 16:01:52;;;;;;;13.40;5.93;;;9.30;57.70;;;;;;6213069;28;20045;-78
2022/12/18 16:04:53;;;;;;;11.75;5.82;;;9.30;57.90;;;;;;6214043;28;20379;-78
2022/12/18 16:07:54;;;;;;;27.55;10.38;;;9.20;57.90;;;;;;6197347;28;20038;-79
2022/12/18 16:10:57;;;;;;;18.77;8.10;;;9.20;58.10;;;;;;6218082;28;20474;-78
2022/12/18 16:13:57;;;;;;;17.92;8.70;;;9.20;58.20;;;;;;6241601;28;20454;-78
2022/12/18 16:17:00;;;;;;;18.95;8.68;;;9.10;58.20;;;;;;6255118;28;20099;-78
2022/12/18 16:20:00;;;;;;;20.95;9.80;;;9.10;58.30;;;;;;6258958;28;20035;-78
2022/12/18 16:23:01;;;;;;;25.75;9.50;;;9.10;58.40;;;;;;6241350;28;20429;-77
2022/12/18 16:26:02;;;;;;;19.52;7.63;;;9.00;58.40;;;;;;6242057;28;20046;-78